createdAt,value
2019-01-31T00:00:33.830Z,6.30
2019-01-31T00:01:33.570Z,5.90
2019-01-31T00:02:33.636Z,6.10
2019-01-31T00:03:33.555Z,5.90
2019-01-31T00:04:33.546Z,6.10
2019-01-31T00:05:33.679Z,5.90
2019-01-31T00:06:33.509Z,5.70
2019-01-31T00:07:33.644Z,5.60
2019-01-31T00:08:33.558Z,5.60
2019-01-31T00:09:33.475Z,5.80
2019-01-31T00:10:33.578Z,5.60
2019-01-31T00:11:33.640Z,5.80
2019-01-31T00:12:33.576Z,6.00
2019-01-31T00:13:33.484Z,5.60
2019-01-31T00:14:33.560Z,5.20
2019-01-31T00:15:33.531Z,5.60
2019-01-31T00:16:33.505Z,5.50
2019-01-31T00:17:33.462Z,5.80
2019-01-31T00:18:33.529Z,5.40
2019-01-31T00:19:33.420Z,5.90
2019-01-31T00:20:33.508Z,5.50
2019-01-31T00:21:33.365Z,5.10
2019-01-31T00:22:33.657Z,5.20
2019-01-31T00:23:33.632Z,5.40
2019-01-31T00:24:33.433Z,5.20
2019-01-31T00:25:33.494Z,5.10
2019-01-31T00:26:33.405Z,5.30
2019-01-31T00:27:33.470Z,5.00
2019-01-31T00:28:33.338Z,4.70
2019-01-31T00:29:33.666Z,5.10
2019-01-31T00:30:33.395Z,4.90
2019-01-31T00:31:33.526Z,5.20
2019-01-31T00:32:33.331Z,5.00
2019-01-31T00:33:33.370Z,4.80
2019-01-31T00:34:33.239Z,4.80
2019-01-31T00:35:33.334Z,4.90
2019-01-31T00:36:33.487Z,4.90
2019-01-31T00:37:33.285Z,5.00
2019-01-31T00:38:33.316Z,4.80
2019-01-31T00:39:33.452Z,4.60
2019-01-31T00:40:33.382Z,4.90
2019-01-31T00:41:33.555Z,4.60
2019-01-31T00:42:33.255Z,5.10
2019-01-31T00:43:33.203Z,5.60
2019-01-31T00:44:33.404Z,4.70
2019-01-31T00:45:33.132Z,5.30
2019-01-31T00:46:33.458Z,4.70
2019-01-31T00:47:33.223Z,5.10
2019-01-31T00:48:33.261Z,5.00
2019-01-31T00:49:33.151Z,4.90
2019-01-31T00:50:33.247Z,4.30
2019-01-31T00:51:33.143Z,5.00
2019-01-31T00:52:33.157Z,5.00
2019-01-31T00:53:33.231Z,4.50
2019-01-31T00:54:33.126Z,4.30
2019-01-31T00:55:33.416Z,4.40
2019-01-31T00:56:33.084Z,3.90
2019-01-31T00:57:33.498Z,4.30
2019-01-31T00:58:33.145Z,4.30
2019-01-31T00:59:33.095Z,3.80
2019-01-31T01:00:33.042Z,3.90
2019-01-31T01:01:33.078Z,3.90
2019-01-31T01:02:32.975Z,4.40
2019-01-31T01:03:33.138Z,4.20
2019-01-31T01:04:32.935Z,4.50
2019-01-31T01:05:33.267Z,3.80
2019-01-31T01:06:32.962Z,3.80
2019-01-31T01:07:33.195Z,4.10
2019-01-31T01:08:32.865Z,4.20
2019-01-31T01:09:32.886Z,3.90
2019-01-31T01:10:32.811Z,3.70
2019-01-31T01:11:32.998Z,3.70
2019-01-31T01:12:32.895Z,3.90
2019-01-31T01:13:33.135Z,3.80
2019-01-31T01:14:32.863Z,3.70
2019-01-31T01:15:33.099Z,3.80
2019-01-31T01:16:32.899Z,3.90
2019-01-31T01:17:32.838Z,3.60
2019-01-31T01:18:33.072Z,4.20
2019-01-31T01:19:32.771Z,3.40
2019-01-31T01:20:32.760Z,3.90
2019-01-31T01:21:32.778Z,3.40
2019-01-31T01:22:32.871Z,3.70
2019-01-31T01:23:32.869Z,4.00
2019-01-31T01:24:32.723Z,3.70
2019-01-31T01:25:32.738Z,3.40
2019-01-31T01:26:32.737Z,3.30
2019-01-31T01:27:32.696Z,3.80
2019-01-31T01:28:32.787Z,3.70
2019-01-31T01:29:32.828Z,3.90
2019-01-31T01:30:32.732Z,3.60
2019-01-31T01:31:32.711Z,3.50
2019-01-31T01:32:32.640Z,3.60
2019-01-31T01:33:32.655Z,3.90
2019-01-31T01:34:32.675Z,3.60
2019-01-31T01:35:32.838Z,3.40
2019-01-31T01:36:32.603Z,3.30
2019-01-31T01:37:32.572Z,3.30
2019-01-31T01:38:32.570Z,3.60
2019-01-31T01:39:32.634Z,3.50
2019-01-31T01:40:32.673Z,3.40
2019-01-31T01:41:32.533Z,3.60
2019-01-31T01:42:32.453Z,3.80
2019-01-31T01:43:32.498Z,3.80
2019-01-31T01:44:32.555Z,3.50
2019-01-31T01:45:32.463Z,3.40
2019-01-31T01:46:32.546Z,3.50
2019-01-31T01:47:32.461Z,3.50
2019-01-31T01:48:32.507Z,3.30
2019-01-31T01:49:32.473Z,3.70
2019-01-31T01:50:32.410Z,3.70
2019-01-31T01:51:32.412Z,3.90
2019-01-31T01:52:32.397Z,3.60
2019-01-31T01:53:32.383Z,3.60
2019-01-31T01:54:32.343Z,3.30
2019-01-31T01:55:32.397Z,3.20
2019-01-31T01:56:32.367Z,3.10
2019-01-31T01:57:32.342Z,3.40
2019-01-31T01:58:32.360Z,3.20
2019-01-31T01:59:32.307Z,3.40
2019-01-31T02:00:32.286Z,3.10
2019-01-31T02:01:32.251Z,3.10
2019-01-31T02:02:32.244Z,3.50
2019-01-31T02:03:32.241Z,3.20
2019-01-31T02:04:32.219Z,3.10
2019-01-31T02:05:32.244Z,3.10
2019-01-31T02:06:32.249Z,3.10
2019-01-31T02:07:32.186Z,3.30
2019-01-31T02:08:32.261Z,3.40
2019-01-31T02:09:32.178Z,3.20
2019-01-31T02:10:32.199Z,2.90
2019-01-31T02:11:32.166Z,3.50
2019-01-31T02:12:32.137Z,3.10
2019-01-31T02:13:32.142Z,3.10
2019-01-31T02:14:32.120Z,3.10
2019-01-31T02:15:32.151Z,3.40
2019-01-31T02:16:32.103Z,3.20
2019-01-31T02:17:32.089Z,3.40
2019-01-31T02:18:32.116Z,3.30
2019-01-31T02:19:32.070Z,3.30
2019-01-31T02:20:32.075Z,3.70
2019-01-31T02:21:32.082Z,3.30
2019-01-31T02:22:32.036Z,3.20
2019-01-31T02:23:32.016Z,3.30
2019-01-31T02:24:32.055Z,3.50
2019-01-31T02:25:32.036Z,3.70
2019-01-31T02:26:32.060Z,3.50
2019-01-31T02:27:31.982Z,3.70
2019-01-31T02:28:32.072Z,3.60
2019-01-31T02:29:31.957Z,3.70
2019-01-31T02:30:31.954Z,3.80
2019-01-31T02:31:31.971Z,3.80
2019-01-31T02:32:31.923Z,3.80
2019-01-31T02:33:31.921Z,3.50
2019-01-31T02:34:31.945Z,3.50
2019-01-31T02:35:31.928Z,4.00
2019-01-31T02:36:31.889Z,3.90
2019-01-31T02:37:31.894Z,3.80
2019-01-31T02:38:31.887Z,3.70
2019-01-31T02:39:42.781Z,4.20
2019-01-31T02:40:32.849Z,3.80
2019-01-31T02:41:31.860Z,3.90
2019-01-31T02:42:31.850Z,3.80
2019-01-31T02:43:31.808Z,4.10
2019-01-31T02:44:31.811Z,4.20
2019-01-31T02:45:31.786Z,3.80
2019-01-31T02:46:31.794Z,3.80
2019-01-31T02:47:31.823Z,4.00
2019-01-31T02:48:31.760Z,3.80
2019-01-31T02:49:31.753Z,3.70
2019-01-31T02:50:31.745Z,3.70
2019-01-31T02:51:31.724Z,4.10
2019-01-31T02:52:31.763Z,4.30
2019-01-31T02:53:31.715Z,4.00
2019-01-31T02:54:31.707Z,4.10
2019-01-31T02:55:31.702Z,4.70
2019-01-31T02:57:07.607Z,4.10
2019-01-31T02:57:31.670Z,4.40
2019-01-31T02:58:31.689Z,4.40
2019-01-31T02:59:31.656Z,4.50
2019-01-31T03:00:31.647Z,3.90
2019-01-31T03:01:31.626Z,4.30
2019-01-31T03:02:31.643Z,4.40
2019-01-31T03:03:31.623Z,4.10
2019-01-31T03:04:31.589Z,4.60
2019-01-31T03:05:31.595Z,4.60
2019-01-31T03:06:31.575Z,4.80
2019-01-31T03:07:31.574Z,4.80
2019-01-31T03:08:31.576Z,4.70
2019-01-31T03:09:31.535Z,4.90
2019-01-31T03:10:31.533Z,4.40
2019-01-31T03:11:31.521Z,4.60
2019-01-31T03:12:31.509Z,4.70
2019-01-31T03:13:31.524Z,4.80
2019-01-31T03:14:31.497Z,4.60
2019-01-31T03:15:31.475Z,5.20
2019-01-31T03:16:31.464Z,4.70
2019-01-31T03:17:31.476Z,5.20
2019-01-31T03:18:31.476Z,4.90
2019-01-31T03:19:31.481Z,5.00
2019-01-31T03:20:31.426Z,4.60
2019-01-31T03:21:31.420Z,4.50
2019-01-31T03:22:31.406Z,4.60
2019-01-31T03:23:31.404Z,4.50
2019-01-31T03:24:31.404Z,4.50
2019-01-31T03:25:31.388Z,4.90
2019-01-31T03:26:31.365Z,5.10
2019-01-31T03:27:31.363Z,4.90
2019-01-31T03:28:31.335Z,4.90
2019-01-31T03:29:31.373Z,5.00
2019-01-31T03:30:31.326Z,4.60
2019-01-31T03:31:31.339Z,4.90
2019-01-31T03:32:31.310Z,4.80
2019-01-31T03:33:31.293Z,4.50
2019-01-31T03:34:31.311Z,4.60
2019-01-31T03:35:31.264Z,4.40
2019-01-31T03:36:31.253Z,4.80
2019-01-31T03:37:31.316Z,5.10
2019-01-31T03:38:33.058Z,4.80
2019-01-31T03:39:31.257Z,4.80
2019-01-31T03:40:31.217Z,4.60
2019-01-31T03:41:31.214Z,5.10
2019-01-31T03:42:31.192Z,4.90
2019-01-31T03:43:31.185Z,4.70
2019-01-31T03:44:31.208Z,4.90
2019-01-31T03:45:31.166Z,4.70
2019-01-31T03:46:31.154Z,5.20
2019-01-31T03:47:31.154Z,5.10
2019-01-31T03:48:31.135Z,5.20
2019-01-31T03:49:31.168Z,4.80
2019-01-31T03:50:31.123Z,5.30
2019-01-31T03:51:31.106Z,5.00
2019-01-31T03:52:31.093Z,4.80
2019-01-31T03:53:31.077Z,5.40
2019-01-31T03:54:31.066Z,5.50
2019-01-31T03:55:31.119Z,5.10
2019-01-31T03:56:31.047Z,5.00
2019-01-31T03:57:31.040Z,4.90
2019-01-31T03:58:31.030Z,5.30
2019-01-31T03:59:31.021Z,5.00
2019-01-31T04:00:31.051Z,5.20
2019-01-31T04:01:31.008Z,5.20
2019-01-31T04:02:30.989Z,5.20
2019-01-31T04:03:32.616Z,5.20
2019-01-31T04:04:30.978Z,4.80
2019-01-31T04:05:31.000Z,5.20
2019-01-31T04:06:30.950Z,5.20
2019-01-31T04:07:30.944Z,5.10
2019-01-31T04:08:30.950Z,5.40
2019-01-31T04:09:30.918Z,5.20
2019-01-31T04:10:30.923Z,5.30
2019-01-31T04:11:30.893Z,5.20
2019-01-31T04:12:30.886Z,5.30
2019-01-31T04:13:30.874Z,5.40
2019-01-31T04:14:30.900Z,5.10
2019-01-31T04:15:30.893Z,4.90
2019-01-31T04:16:30.847Z,5.50
2019-01-31T04:17:30.845Z,5.30
2019-01-31T04:18:30.863Z,4.90
2019-01-31T04:19:30.812Z,5.80
2019-01-31T04:20:30.824Z,5.50
2019-01-31T04:21:30.823Z,5.30
2019-01-31T04:22:30.784Z,5.30
2019-01-31T04:23:30.776Z,5.20
2019-01-31T04:24:30.754Z,5.10
2019-01-31T04:25:30.815Z,5.50
2019-01-31T04:26:30.772Z,5.80
2019-01-31T04:27:30.728Z,5.30
2019-01-31T04:28:31.006Z,5.80
2019-01-31T04:29:30.744Z,5.50
2019-01-31T04:30:30.738Z,5.20
2019-01-31T04:31:30.706Z,5.10
2019-01-31T04:32:30.674Z,5.20
2019-01-31T04:33:30.663Z,5.30
2019-01-31T04:34:30.661Z,5.70
2019-01-31T04:35:30.676Z,5.80
2019-01-31T04:36:30.651Z,5.30
2019-01-31T04:37:30.632Z,5.20
2019-01-31T04:38:30.615Z,5.40
2019-01-31T04:39:30.605Z,5.10
2019-01-31T04:40:31.747Z,5.20
2019-01-31T04:41:30.606Z,5.10
2019-01-31T04:42:30.576Z,5.20
2019-01-31T04:43:30.560Z,5.00
2019-01-31T04:44:30.572Z,4.90
2019-01-31T04:45:30.545Z,5.20
2019-01-31T04:46:30.547Z,5.00
2019-01-31T04:47:30.523Z,5.10
2019-01-31T04:48:30.507Z,5.30
2019-01-31T04:49:30.516Z,4.90
2019-01-31T04:50:30.499Z,5.20
2019-01-31T04:51:30.517Z,5.10
2019-01-31T04:52:30.462Z,5.50
2019-01-31T04:53:30.471Z,5.30
2019-01-31T04:54:30.444Z,5.40
2019-01-31T04:55:30.434Z,5.20
2019-01-31T04:56:30.419Z,4.90
2019-01-31T04:57:30.443Z,5.00
2019-01-31T04:58:30.407Z,5.00
2019-01-31T04:59:30.397Z,4.60
2019-01-31T05:00:30.426Z,4.90
2019-01-31T05:01:30.374Z,5.20
2019-01-31T05:02:30.387Z,4.80
2019-01-31T05:03:30.354Z,5.00
2019-01-31T05:04:30.343Z,5.20
2019-01-31T05:05:30.337Z,5.20
2019-01-31T05:06:30.323Z,5.10
2019-01-31T05:07:30.340Z,4.70
2019-01-31T05:08:30.937Z,5.00
2019-01-31T05:09:30.301Z,4.90
2019-01-31T05:10:42.438Z,4.90
2019-01-31T05:11:31.272Z,5.00
2019-01-31T05:12:30.280Z,5.10
2019-01-31T05:13:30.248Z,4.90
2019-01-31T05:14:30.241Z,4.80
2019-01-31T05:15:30.229Z,5.50
2019-01-31T05:16:30.318Z,4.80
2019-01-31T05:17:30.253Z,5.00
2019-01-31T05:18:30.334Z,5.60
2019-01-31T05:19:30.248Z,5.20
2019-01-31T05:20:30.201Z,4.90
2019-01-31T05:21:30.226Z,5.00
2019-01-31T05:22:30.252Z,5.00
2019-01-31T05:23:30.217Z,4.70
2019-01-31T05:24:30.178Z,5.20
2019-01-31T05:25:30.163Z,4.80
2019-01-31T05:26:30.173Z,5.20
2019-01-31T05:27:30.185Z,4.80
2019-01-31T05:28:30.284Z,4.70
2019-01-31T05:29:30.186Z,5.10
2019-01-31T05:30:30.171Z,4.70
2019-01-31T05:31:30.126Z,4.70
2019-01-31T05:32:30.100Z,5.20
2019-01-31T05:33:30.133Z,4.70
2019-01-31T05:34:30.056Z,4.70
2019-01-31T05:35:30.091Z,4.40
2019-01-31T05:36:30.042Z,4.70
2019-01-31T05:37:30.017Z,5.00
2019-01-31T05:38:30.050Z,4.90
2019-01-31T05:39:30.013Z,4.90
2019-01-31T05:40:30.026Z,4.80
2019-01-31T05:41:29.998Z,5.10
2019-01-31T05:42:30.018Z,5.10
2019-01-31T05:43:29.975Z,5.10
2019-01-31T05:44:30.010Z,5.20
2019-01-31T05:45:29.954Z,6.20
2019-01-31T05:46:29.985Z,6.00
2019-01-31T05:47:29.923Z,6.00
2019-01-31T05:48:29.945Z,5.80
2019-01-31T05:49:29.900Z,5.40
2019-01-31T05:50:30.583Z,6.10
2019-01-31T05:51:29.906Z,6.30
2019-01-31T05:52:29.891Z,6.10
2019-01-31T05:53:30.070Z,6.20
2019-01-31T05:54:29.854Z,6.30
2019-01-31T05:55:29.911Z,6.50
2019-01-31T05:56:29.815Z,6.10
2019-01-31T05:57:29.879Z,6.10
2019-01-31T05:58:29.898Z,5.70
2019-01-31T05:59:29.861Z,6.00
2019-01-31T06:00:29.809Z,6.40
2019-01-31T06:01:29.761Z,6.30
2019-01-31T06:02:29.762Z,6.40
2019-01-31T06:03:29.774Z,6.20
2019-01-31T06:04:29.732Z,6.20
2019-01-31T06:05:29.722Z,6.20
2019-01-31T06:06:29.704Z,6.20
2019-01-31T06:07:29.746Z,5.90
2019-01-31T06:08:29.764Z,6.10
2019-01-31T06:09:29.688Z,6.40
2019-01-31T06:10:29.708Z,6.40
2019-01-31T06:11:29.698Z,6.60
2019-01-31T06:12:29.727Z,5.90
2019-01-31T06:13:29.674Z,6.40
2019-01-31T06:14:29.677Z,6.10
2019-01-31T06:15:29.623Z,6.10
2019-01-31T06:16:29.612Z,5.90
2019-01-31T06:17:29.636Z,6.00
2019-01-31T06:18:29.582Z,6.00
2019-01-31T06:19:29.636Z,5.90
2019-01-31T06:20:29.573Z,5.60
2019-01-31T06:21:29.942Z,5.90
2019-01-31T06:22:29.555Z,6.00
2019-01-31T06:23:29.550Z,6.20
2019-01-31T06:24:29.541Z,5.90
2019-01-31T06:25:29.562Z,5.50
2019-01-31T06:26:29.524Z,5.20
2019-01-31T06:27:29.502Z,6.00
2019-01-31T06:28:29.540Z,5.80
2019-01-31T06:29:29.475Z,6.20
2019-01-31T06:30:29.510Z,5.70
2019-01-31T06:31:29.493Z,6.00
2019-01-31T06:32:29.444Z,6.30
2019-01-31T06:33:29.513Z,6.30
2019-01-31T06:34:30.175Z,6.40
2019-01-31T06:35:29.733Z,6.40
2019-01-31T06:36:29.498Z,6.30
2019-01-31T06:37:29.407Z,6.00
2019-01-31T06:38:29.432Z,5.80
2019-01-31T06:39:29.412Z,5.40
2019-01-31T06:40:30.277Z,5.90
2019-01-31T06:41:29.341Z,5.90
2019-01-31T06:42:29.337Z,5.80
2019-01-31T06:43:29.335Z,5.90
2019-01-31T06:44:29.340Z,6.20
2019-01-31T06:45:29.323Z,6.00
2019-01-31T06:46:29.302Z,6.20
2019-01-31T06:47:29.341Z,6.20
2019-01-31T06:48:29.281Z,6.00
2019-01-31T06:49:29.303Z,7.00
2019-01-31T06:50:29.315Z,6.90
2019-01-31T06:51:29.275Z,6.90
2019-01-31T06:52:29.231Z,6.60
2019-01-31T06:53:29.223Z,6.30
2019-01-31T06:54:29.251Z,6.70
2019-01-31T06:55:29.206Z,6.50
2019-01-31T06:56:29.211Z,6.20
2019-01-31T06:57:29.213Z,6.40
2019-01-31T06:58:29.173Z,6.30
2019-01-31T06:59:29.157Z,6.20
2019-01-31T07:00:29.179Z,5.60
2019-01-31T07:01:29.155Z,6.10
2019-01-31T07:02:29.136Z,6.30
2019-01-31T07:03:29.125Z,6.20
2019-01-31T07:04:29.118Z,6.50
2019-01-31T07:05:29.113Z,6.20
2019-01-31T07:06:30.663Z,5.70
2019-01-31T07:07:29.179Z,6.50
2019-01-31T07:08:29.124Z,6.00
2019-01-31T07:09:29.054Z,6.40
2019-01-31T07:10:29.037Z,6.60
2019-01-31T07:11:30.364Z,6.50
2019-01-31T07:12:29.083Z,6.20
2019-01-31T07:13:29.141Z,5.70
2019-01-31T07:14:29.018Z,6.10
2019-01-31T07:15:29.212Z,6.10
2019-01-31T07:16:29.069Z,5.80
2019-01-31T07:17:29.195Z,5.90
2019-01-31T07:18:28.974Z,6.10
2019-01-31T07:19:28.976Z,5.60
2019-01-31T07:20:28.963Z,6.00
2019-01-31T07:21:28.944Z,5.80
2019-01-31T07:22:28.921Z,6.10
2019-01-31T07:23:28.947Z,5.80
2019-01-31T07:24:28.896Z,5.90
2019-01-31T07:25:28.892Z,5.50
2019-01-31T07:26:28.892Z,5.50
2019-01-31T07:27:28.877Z,5.80
2019-01-31T07:28:28.878Z,5.80
2019-01-31T07:29:30.022Z,6.10
2019-01-31T07:30:28.831Z,6.10
2019-01-31T07:31:28.930Z,5.90
2019-01-31T07:32:28.962Z,5.90
2019-01-31T07:33:28.828Z,6.10
2019-01-31T07:34:28.846Z,6.20
2019-01-31T07:35:28.800Z,6.40
2019-01-31T07:36:28.943Z,5.90
2019-01-31T07:37:28.772Z,6.00
2019-01-31T07:38:28.775Z,6.30
2019-01-31T07:39:28.765Z,5.70
2019-01-31T07:40:28.737Z,5.40
2019-01-31T07:41:28.750Z,6.10
2019-01-31T07:42:28.717Z,5.90
2019-01-31T07:43:28.749Z,5.30
2019-01-31T07:44:28.781Z,5.70
2019-01-31T07:45:28.677Z,5.80
2019-01-31T07:46:28.669Z,5.90
2019-01-31T07:47:28.713Z,6.00
2019-01-31T07:48:28.680Z,5.80
2019-01-31T07:49:28.653Z,5.60
2019-01-31T07:50:28.685Z,5.60
2019-01-31T07:51:28.670Z,5.30
2019-01-31T07:52:28.618Z,5.70
2019-01-31T07:53:28.674Z,5.80
2019-01-31T07:54:28.643Z,5.70
2019-01-31T07:55:28.609Z,5.80
2019-01-31T07:56:28.588Z,6.10
2019-01-31T07:57:28.560Z,6.50
2019-01-31T07:58:28.687Z,6.30
2019-01-31T07:59:28.690Z,6.80
2019-01-31T08:00:28.545Z,6.90
2019-01-31T08:01:28.511Z,6.70
2019-01-31T08:02:28.516Z,7.10
2019-01-31T08:03:28.536Z,7.10
2019-01-31T08:04:28.669Z,7.00
2019-01-31T08:05:28.478Z,7.50
2019-01-31T08:06:28.581Z,7.90
2019-01-31T08:07:28.781Z,8.00
2019-01-31T08:08:28.461Z,9.00
2019-01-31T08:09:28.937Z,7.80
2019-01-31T08:10:31.494Z,8.00
2019-01-31T08:11:28.568Z,8.80
2019-01-31T08:12:28.591Z,8.60
2019-01-31T08:13:28.432Z,7.50
2019-01-31T08:14:28.437Z,7.30
2019-01-31T08:15:28.400Z,8.00
2019-01-31T08:16:28.439Z,6.60
2019-01-31T08:17:28.362Z,7.00
2019-01-31T08:18:28.375Z,6.50
2019-01-31T08:19:28.349Z,6.40
2019-01-31T08:20:28.332Z,6.70
2019-01-31T08:21:28.323Z,6.30
2019-01-31T08:22:28.299Z,6.50
2019-01-31T08:23:28.287Z,6.20
2019-01-31T08:24:28.372Z,7.20
2019-01-31T08:25:28.294Z,6.60
2019-01-31T08:26:28.291Z,6.60
2019-01-31T08:27:28.269Z,6.70
2019-01-31T08:28:28.298Z,6.80
2019-01-31T08:29:28.256Z,7.20
2019-01-31T08:30:28.288Z,6.50
2019-01-31T08:31:28.213Z,6.80
2019-01-31T08:32:28.214Z,6.80
2019-01-31T08:33:28.461Z,6.90
2019-01-31T08:34:28.246Z,7.30
2019-01-31T08:35:28.325Z,7.00
2019-01-31T08:36:28.298Z,7.90
2019-01-31T08:37:28.183Z,7.40
2019-01-31T08:38:28.148Z,7.40
2019-01-31T08:39:28.124Z,8.10
2019-01-31T08:40:28.179Z,8.40
2019-01-31T08:41:28.108Z,8.50
2019-01-31T08:42:28.120Z,9.10
2019-01-31T08:43:28.097Z,8.00
2019-01-31T08:44:28.082Z,8.60
2019-01-31T08:45:28.143Z,9.20
2019-01-31T08:46:28.068Z,8.90
2019-01-31T08:47:28.105Z,8.90
2019-01-31T08:48:28.041Z,9.10
2019-01-31T08:49:29.086Z,8.90
2019-01-31T08:50:28.151Z,9.00
2019-01-31T08:51:28.063Z,8.70
2019-01-31T08:52:28.041Z,9.50
2019-01-31T08:53:28.011Z,9.60
2019-01-31T08:54:28.032Z,9.70
2019-01-31T08:55:28.000Z,8.80
2019-01-31T08:56:28.072Z,9.00
2019-01-31T08:57:27.986Z,8.80
2019-01-31T08:58:28.039Z,8.40
2019-01-31T08:59:27.956Z,8.60
2019-01-31T09:00:27.983Z,8.30
2019-01-31T09:01:28.002Z,9.20
2019-01-31T09:02:28.233Z,9.40
2019-01-31T09:03:27.962Z,8.80
2019-01-31T09:04:28.263Z,8.30
2019-01-31T09:05:27.891Z,7.30
2019-01-31T09:06:27.877Z,8.00
2019-01-31T09:07:29.354Z,7.30
2019-01-31T09:08:27.966Z,7.40
2019-01-31T09:11:14.302Z,11.60
2019-01-31T09:12:15.313Z,11.80
2019-01-31T09:13:14.242Z,11.10
2019-01-31T09:14:14.194Z,11.00
2019-01-31T09:15:14.036Z,8.70
2019-01-31T09:16:14.152Z,9.50
2019-01-31T09:17:14.145Z,9.30
2019-01-31T09:18:14.157Z,8.90
2019-01-31T09:19:14.373Z,8.30
2019-01-31T09:21:19.263Z,8.90
2019-01-31T09:23:36.599Z,10.40
2019-01-31T09:24:34.903Z,11.80
2019-01-31T09:25:34.816Z,12.80
2019-01-31T09:26:34.810Z,12.30
2019-01-31T09:27:34.704Z,13.40
2019-01-31T09:28:34.720Z,13.60
2019-01-31T09:29:34.606Z,12.70
2019-01-31T09:30:34.681Z,11.70
2019-01-31T09:31:34.705Z,11.30
2019-01-31T09:32:34.704Z,12.80
2019-01-31T09:33:34.627Z,12.90
2019-01-31T09:34:34.683Z,16.60
2019-01-31T09:35:34.655Z,19.40
2019-01-31T09:36:34.637Z,17.00
2019-01-31T09:37:35.024Z,14.90
2019-01-31T09:38:35.203Z,12.40
2019-01-31T09:39:34.537Z,13.00
2019-01-31T09:40:34.589Z,11.30
2019-01-31T09:41:34.496Z,12.60
2019-01-31T09:42:37.688Z,12.40
2019-01-31T09:43:34.509Z,13.10
2019-01-31T09:44:34.610Z,12.30
2019-01-31T09:45:34.450Z,12.80
2019-01-31T09:46:34.433Z,11.80
2019-01-31T09:47:34.605Z,12.20
2019-01-31T09:48:34.486Z,11.90
2019-01-31T09:49:34.463Z,12.00
2019-01-31T09:50:34.422Z,11.50
2019-01-31T09:51:34.483Z,11.70
2019-01-31T09:52:34.522Z,12.60
2019-01-31T09:53:34.490Z,12.00
2019-01-31T09:54:34.444Z,11.20
2019-01-31T09:55:34.640Z,11.20
2019-01-31T09:56:34.932Z,11.20
2019-01-31T09:57:35.281Z,11.30
2019-01-31T09:58:34.512Z,10.80
2019-01-31T09:59:34.262Z,11.70
2019-01-31T10:00:34.419Z,11.10
2019-01-31T10:01:34.352Z,11.40
2019-01-31T10:02:34.525Z,11.20
2019-01-31T10:03:34.945Z,11.70
2019-01-31T10:04:34.473Z,11.40
2019-01-31T10:05:34.414Z,11.10
2019-01-31T10:06:36.963Z,11.00
2019-01-31T10:07:34.478Z,11.10
2019-01-31T10:08:34.476Z,11.20
2019-01-31T10:09:34.433Z,11.40
2019-01-31T10:10:34.532Z,11.30
2019-01-31T10:11:34.391Z,11.70
2019-01-31T10:12:38.442Z,11.20
2019-01-31T10:13:34.487Z,10.80
2019-01-31T10:14:34.399Z,10.90
2019-01-31T10:15:34.571Z,11.70
2019-01-31T10:16:34.609Z,11.50
2019-01-31T10:17:34.505Z,11.80
2019-01-31T10:18:35.089Z,11.90
2019-01-31T10:19:34.591Z,12.00
2019-01-31T10:20:34.965Z,12.20
2019-01-31T11:07:34.496Z,12.50
2019-01-31T11:09:35.119Z,12.70
2019-01-31T11:11:11.666Z,13.10
2019-01-31T11:11:37.411Z,12.90
2019-01-31T11:12:41.757Z,12.50
2019-01-31T11:13:34.694Z,13.10
2019-01-31T11:14:34.563Z,13.60
2019-01-31T11:15:34.907Z,13.20
2019-01-31T11:16:34.524Z,12.40
2019-01-31T11:17:35.874Z,12.40
2019-01-31T11:18:34.628Z,13.00
2019-01-31T11:19:34.440Z,12.90
2019-01-31T11:20:34.697Z,11.80
2019-01-31T11:21:34.359Z,12.80
2019-01-31T11:22:34.621Z,12.90
2019-01-31T11:23:34.534Z,12.80
2019-01-31T11:24:34.378Z,12.50
2019-01-31T11:25:34.601Z,12.10
2019-01-31T11:26:34.596Z,13.20
2019-01-31T11:27:34.530Z,13.40
2019-01-31T11:28:34.543Z,12.90
2019-01-31T11:29:36.542Z,13.40
2019-01-31T11:30:34.089Z,12.40
2019-01-31T11:31:34.613Z,12.70
2019-01-31T11:32:35.116Z,12.90
2019-01-31T11:33:34.364Z,12.40
2019-01-31T11:34:34.414Z,12.40
2019-01-31T11:35:34.803Z,12.00
2019-01-31T11:36:34.297Z,11.80
2019-01-31T11:37:36.902Z,12.70
2019-01-31T11:38:35.100Z,12.30
2019-01-31T11:54:45.633Z,12.40
2019-01-31T12:33:30.980Z,10.80
2019-01-31T12:34:24.818Z,10.50
2019-01-31T12:35:22.075Z,10.50
2019-01-31T12:36:21.093Z,10.60
2019-01-31T12:37:21.226Z,11.00
2019-01-31T12:38:21.167Z,10.40
2019-01-31T12:39:21.189Z,10.10
2019-01-31T12:40:21.102Z,10.00
2019-01-31T12:41:21.382Z,11.10
2019-01-31T12:42:20.998Z,10.70
2019-01-31T12:43:20.978Z,11.20
2019-01-31T12:44:20.898Z,10.80
2019-01-31T12:45:21.292Z,10.60
2019-01-31T12:46:20.939Z,10.20
2019-01-31T12:47:20.779Z,10.00
2019-01-31T12:48:20.957Z,10.20
2019-01-31T12:49:20.896Z,10.30
2019-01-31T12:50:20.912Z,10.20
2019-01-31T12:51:21.348Z,10.00
2019-01-31T12:52:20.807Z,10.50
2019-01-31T12:53:21.601Z,10.70
2019-01-31T12:54:20.859Z,11.10
2019-01-31T12:55:22.059Z,10.10
2019-01-31T12:56:20.970Z,10.60
2019-01-31T12:57:22.670Z,10.40
2019-01-31T12:58:20.855Z,10.40
2019-01-31T12:59:21.052Z,9.60
2019-01-31T13:00:20.782Z,9.10
2019-01-31T13:01:21.173Z,9.20
2019-01-31T13:02:20.673Z,9.50
2019-01-31T13:03:20.768Z,9.20
2019-01-31T13:04:20.987Z,8.90
2019-01-31T13:05:20.953Z,9.10
2019-01-31T13:06:21.261Z,8.90
2019-01-31T13:07:20.885Z,9.00
2019-01-31T13:08:20.644Z,8.80
2019-01-31T13:09:20.772Z,9.30
2019-01-31T13:10:20.696Z,8.90
2019-01-31T13:11:21.179Z,9.10
2019-01-31T13:12:20.642Z,8.80
2019-01-31T13:13:20.879Z,8.30
2019-01-31T13:14:20.512Z,8.60
2019-01-31T13:15:21.118Z,8.50
2019-01-31T13:16:20.612Z,9.10
2019-01-31T13:17:20.671Z,9.70
2019-01-31T13:18:20.566Z,8.80
2019-01-31T13:19:20.677Z,9.10
2019-01-31T13:20:20.573Z,9.40
2019-01-31T13:21:20.971Z,9.20
2019-01-31T13:22:20.687Z,9.30
2019-01-31T13:23:20.575Z,9.20
2019-01-31T13:24:20.922Z,9.50
2019-01-31T13:25:20.806Z,9.20
2019-01-31T13:26:20.548Z,8.30
2019-01-31T13:27:20.369Z,8.30
2019-01-31T13:28:20.337Z,8.50
2019-01-31T13:29:20.346Z,8.10
2019-01-31T13:30:20.316Z,8.40
2019-01-31T13:31:20.503Z,8.90
2019-01-31T13:32:20.313Z,9.00
2019-01-31T13:33:20.285Z,8.30
2019-01-31T13:34:20.261Z,8.70
2019-01-31T13:35:20.385Z,8.90
2019-01-31T13:36:20.332Z,8.60
2019-01-31T13:37:20.472Z,8.50
2019-01-31T13:38:20.309Z,8.50
2019-01-31T13:39:20.353Z,8.30
2019-01-31T13:40:20.343Z,8.60
2019-01-31T13:41:20.296Z,8.90
2019-01-31T13:42:20.467Z,8.60
2019-01-31T13:43:20.240Z,8.40
2019-01-31T13:44:20.216Z,8.40
2019-01-31T13:45:20.301Z,8.50
2019-01-31T13:46:20.523Z,8.20
2019-01-31T13:47:20.725Z,7.60
2019-01-31T13:48:20.097Z,8.40
2019-01-31T13:49:21.474Z,8.00
2019-01-31T13:50:25.392Z,8.10
2019-01-31T13:51:21.489Z,8.50
2019-01-31T13:52:20.803Z,8.60
2019-01-31T13:53:20.169Z,8.70
2019-01-31T13:54:44.076Z,8.00
2019-01-31T17:37:37.603Z,7.20
2019-01-31T17:38:37.344Z,18.30
2019-01-31T17:39:38.507Z,18.40
2019-01-31T17:40:37.889Z,18.90
2019-01-31T17:41:36.794Z,17.90
2019-01-31T17:42:36.923Z,17.70
2019-01-31T17:43:36.866Z,17.40
2019-01-31T17:44:36.703Z,18.60
2019-01-31T17:45:36.898Z,17.40
2019-01-31T17:46:36.714Z,17.80
2019-01-31T17:47:36.740Z,17.60
2019-01-31T17:48:36.719Z,17.30
2019-01-31T17:49:36.841Z,18.20
2019-01-31T17:50:36.724Z,18.70
2019-01-31T17:51:36.738Z,18.50
2019-01-31T17:52:36.699Z,19.10
2019-01-31T17:53:36.619Z,19.30
2019-01-31T17:54:36.757Z,20.70
2019-01-31T17:55:36.641Z,20.40
2019-01-31T17:56:36.647Z,20.30
2019-01-31T17:57:36.686Z,20.60
2019-01-31T17:58:36.637Z,19.80
2019-01-31T17:59:36.607Z,19.80
2019-01-31T18:00:36.676Z,21.60
2019-01-31T18:01:36.540Z,22.00
2019-01-31T18:02:44.865Z,21.90
2019-01-31T18:03:37.587Z,20.90
2019-01-31T18:04:36.555Z,22.10
2019-01-31T18:05:36.685Z,22.70
2019-01-31T18:06:36.568Z,21.80
2019-01-31T18:07:36.477Z,22.70
2019-01-31T18:08:36.485Z,22.50
2019-01-31T18:09:36.501Z,21.20
2019-01-31T18:10:36.510Z,21.70
2019-01-31T18:11:36.425Z,21.40
2019-01-31T18:12:36.471Z,22.50
2019-01-31T18:13:36.511Z,22.70
2019-01-31T18:14:36.446Z,20.50
2019-01-31T18:15:42.317Z,21.40
2019-01-31T18:16:37.414Z,21.60
2019-01-31T18:17:36.374Z,21.90
2019-01-31T18:18:37.250Z,21.20
2019-01-31T18:19:36.586Z,22.00
2019-01-31T18:20:36.429Z,21.20
2019-01-31T18:21:36.884Z,19.30
2019-01-31T18:22:37.586Z,20.10
2019-01-31T18:23:37.188Z,21.50
2019-01-31T18:24:36.614Z,20.50
2019-01-31T18:25:37.429Z,19.80
2019-01-31T18:26:36.499Z,18.30
2019-01-31T18:27:36.339Z,18.60
2019-01-31T18:28:36.656Z,18.10
2019-01-31T18:29:36.415Z,18.20
2019-01-31T18:30:36.426Z,19.10
2019-01-31T18:31:36.581Z,18.80
2019-01-31T18:32:36.392Z,18.40
2019-01-31T18:33:36.577Z,19.40
2019-01-31T18:34:36.365Z,19.40
2019-01-31T18:35:36.250Z,19.00
2019-01-31T18:36:36.259Z,17.50
2019-01-31T18:37:36.243Z,15.50
2019-01-31T18:38:36.185Z,15.80